createdAt,value
2022-11-08T00:02:06.767Z,98801.47
2022-11-08T00:04:34.461Z,98791.00
2022-11-08T00:07:20.075Z,98798.09
2022-11-08T00:10:05.282Z,98716.75
2022-11-08T00:12:50.636Z,98797.25
2022-11-08T00:15:17.459Z,98794.72
2022-11-08T00:17:44.291Z,98794.84
2022-11-08T00:20:11.404Z,98800.84
2022-11-08T00:22:37.959Z,98794.84
2022-11-08T00:25:05.135Z,98793.03
2022-11-08T00:27:31.769Z,98789.56
2022-11-08T00:29:58.414Z,98793.03
2022-11-08T00:32:26.310Z,98772.00
2022-11-08T00:34:53.628Z,98787.84
2022-11-08T00:37:21.839Z,98787.94
2022-11-08T00:39:48.701Z,98792.28
2022-11-08T00:42:15.391Z,98779.16
2022-11-08T00:44:42.091Z,98787.13
2022-11-08T00:47:08.689Z,98796.88
2022-11-08T00:49:35.371Z,98795.06
2022-11-08T00:52:01.876Z,98792.53
2022-11-08T00:54:28.551Z,98793.38
2022-11-08T00:56:55.392Z,98789.03
2022-11-08T00:59:21.981Z,98797.91
2022-11-08T01:01:48.755Z,98789.13
2022-11-08T01:04:17.790Z,98790.09
2022-11-08T01:06:45.181Z,98786.63
2022-11-08T01:09:12.174Z,98791.91
2022-11-08T01:11:40.115Z,98784.91
2022-11-08T01:14:06.794Z,98795.50
2022-11-08T01:16:34.048Z,98793.81
2022-11-08T01:19:01.380Z,98793.81
2022-11-08T01:21:28.824Z,98792.13
2022-11-08T01:23:55.903Z,98793.06
2022-11-08T01:26:25.641Z,98792.25
2022-11-08T01:28:56.155Z,98792.25
2022-11-08T01:31:29.299Z,98789.72
2022-11-08T01:33:57.217Z,98782.22
2022-11-08T01:36:25.913Z,98780.72
2022-11-08T01:38:53.567Z,98789.84
2022-11-08T01:41:22.096Z,98785.38
2022-11-08T01:43:53.387Z,98721.09
2022-11-08T01:46:19.963Z,98787.19
2022-11-08T01:49:10.739Z,98781.97
2022-11-08T01:51:42.483Z,98777.63
2022-11-08T01:54:15.772Z,98780.53
2022-11-08T01:56:43.969Z,98787.41
2022-11-08T01:59:13.039Z,98782.22
2022-11-08T02:01:39.878Z,98786.56
2022-11-08T02:04:06.946Z,98772.06
2022-11-08T02:06:37.652Z,98777.88
2022-11-08T02:09:08.450Z,98780.53
2022-11-08T02:11:35.991Z,98778.72
2022-11-08T02:14:04.124Z,98772.59
2022-11-08T02:16:30.765Z,98776.94
2022-11-08T02:18:57.470Z,98778.00
2022-11-08T02:21:30.351Z,98770.25
2022-11-08T02:24:02.792Z,98772.78
2022-11-08T02:26:31.397Z,98768.34
2022-11-08T02:28:57.951Z,98769.19
2022-11-08T02:31:25.083Z,98768.47
2022-11-08T02:33:51.627Z,98775.56
2022-11-08T02:36:22.104Z,98762.56
2022-11-08T02:38:54.359Z,98769.44
2022-11-08T02:41:21.103Z,98772.16
2022-11-08T02:43:47.765Z,98771.34
2022-11-08T02:46:14.608Z,98773.03
2022-11-08T02:48:41.206Z,98773.97
2022-11-08T02:51:07.875Z,98772.28
2022-11-08T02:53:35.247Z,98768.81
2022-11-08T02:56:01.851Z,98777.69
2022-11-08T02:58:28.413Z,98775.88
2022-11-08T03:00:55.097Z,98769.88
2022-11-08T03:03:21.649Z,98776.88
2022-11-08T03:05:48.224Z,98770.72
2022-11-08T03:08:15.756Z,98768.19
2022-11-08T03:10:42.756Z,98771.66
2022-11-08T03:13:09.437Z,98767.22
2022-11-08T03:15:36.054Z,98769.97
2022-11-08T03:18:02.616Z,98765.66
2022-11-08T03:20:32.854Z,98766.50
2022-11-08T03:23:01.847Z,98765.66
2022-11-08T03:25:28.347Z,98768.38
2022-11-08T03:27:55.076Z,98778.03
2022-11-08T03:30:22.123Z,98776.34
2022-11-08T03:32:49.849Z,98772.22
2022-11-08T03:35:16.836Z,98710.50
2022-11-08T03:37:53.478Z,98770.31
2022-11-08T03:40:20.265Z,98712.19
2022-11-08T03:42:47.696Z,98762.47
2022-11-08T03:45:15.217Z,98773.94
2022-11-08T03:47:46.772Z,98771.41
2022-11-08T03:50:15.565Z,98770.53
2022-11-08T03:52:43.764Z,98765.34
2022-11-08T03:55:11.743Z,98770.78
2022-11-08T03:57:39.918Z,98749.72
2022-11-08T04:02:36.977Z,98770.16
2022-11-08T04:05:03.950Z,98765.97
2022-11-08T04:07:30.466Z,98779.94
2022-11-08T04:09:57.412Z,98775.50
2022-11-08T04:12:42.854Z,98768.63
2022-11-08T04:15:17.546Z,98775.72
2022-11-08T04:18:06.235Z,98776.69
2022-11-08T04:20:51.894Z,98785.56
2022-11-08T04:23:18.883Z,98778.59
2022-11-08T04:25:45.522Z,98775.09
2022-11-08T04:28:12.386Z,98769.19
2022-11-08T04:30:38.982Z,98768.97
2022-11-08T04:33:05.742Z,98774.28
2022-11-08T04:35:32.399Z,98766.41
2022-11-08T04:38:00.983Z,98751.22
2022-11-08T04:40:29.582Z,98762.94
2022-11-08T04:42:56.196Z,98748.25
2022-11-08T04:45:23.630Z,98750.66
2022-11-08T04:47:50.223Z,98760.41
2022-11-08T04:50:16.882Z,98769.31
2022-11-08T04:52:43.529Z,98750.78
2022-11-08T04:55:10.141Z,98754.38
2022-11-08T04:57:36.809Z,98749.91
2022-11-08T05:00:04.237Z,98742.97
2022-11-08T05:02:30.934Z,98745.59
2022-11-08T05:04:57.810Z,98743.03
2022-11-08T05:07:24.478Z,98746.56
2022-11-08T05:09:51.000Z,98744.88
2022-11-08T05:12:17.607Z,98746.63
2022-11-08T05:14:44.155Z,98739.56
2022-11-08T05:17:10.784Z,98742.34
2022-11-08T05:19:55.747Z,98740.53
2022-11-08T05:22:41.109Z,98743.28
2022-11-08T05:25:08.325Z,98733.78
2022-11-08T05:27:35.156Z,98740.84
2022-11-08T05:30:02.333Z,98753.13
2022-11-08T05:32:28.894Z,98740.13
2022-11-08T05:34:55.431Z,98750.72
2022-11-08T05:37:22.056Z,98750.72
2022-11-08T05:39:48.726Z,98756.00
2022-11-08T05:42:15.283Z,98756.00
2022-11-08T05:44:41.860Z,98756.84
2022-11-08T05:47:08.410Z,98761.28
2022-11-08T05:49:34.961Z,98763.06
2022-11-08T05:52:01.688Z,98769.94
2022-11-08T05:54:28.317Z,98772.81
2022-11-08T05:56:54.809Z,98764.03
2022-11-08T05:59:21.410Z,98777.25
2022-11-08T06:01:47.989Z,98754.13
2022-11-08T06:04:14.516Z,98765.94
2022-11-08T06:06:41.007Z,98771.25
2022-11-08T06:09:07.823Z,98774.84
2022-11-08T06:11:34.364Z,98774.84
2022-11-08T06:14:00.916Z,98775.78
2022-11-08T06:16:27.485Z,98780.88
2022-11-08T06:18:54.163Z,98778.56
2022-11-08T06:21:21.433Z,98780.56
2022-11-08T06:23:51.132Z,98780.56
2022-11-08T06:26:17.656Z,98778.97
2022-11-08T06:28:44.360Z,98783.31
2022-11-08T06:31:11.584Z,98786.72
2022-11-08T06:33:38.295Z,98795.47
2022-11-08T06:36:06.929Z,98789.25
2022-11-08T06:38:33.642Z,98792.72
2022-11-08T06:41:01.492Z,98773.06
2022-11-08T06:43:28.538Z,98799.41
2022-11-08T06:45:55.243Z,98794.75
2022-11-08T06:48:21.835Z,98792.09
2022-11-08T06:50:48.433Z,98798.22
2022-11-08T06:53:15.734Z,98791.97
2022-11-08T06:55:42.538Z,98799.78
2022-11-08T06:58:10.785Z,98798.84
2022-11-08T07:00:37.440Z,98805.84
2022-11-08T07:03:04.516Z,98806.78
2022-11-08T07:05:32.842Z,98811.25
2022-11-08T07:08:00.967Z,98790.00
2022-11-08T07:10:29.948Z,98807.84
2022-11-08T07:13:11.251Z,98805.19
2022-11-08T07:15:39.067Z,98803.50
2022-11-08T07:18:08.187Z,98803.50
2022-11-08T07:20:35.128Z,98805.31
2022-11-08T07:23:01.722Z,98808.78
2022-11-08T07:25:29.772Z,98800.03
2022-11-08T07:27:58.415Z,98806.16
2022-11-08T07:30:25.317Z,98805.31
2022-11-08T07:32:52.375Z,98810.63
2022-11-08T07:35:19.268Z,98804.38
2022-11-08T07:37:46.054Z,98809.66
2022-11-08T07:40:13.352Z,98808.78
2022-11-08T07:43:09.606Z,98799.91
2022-11-08T07:45:27.915Z,98797.28
2022-11-08T07:48:01.112Z,98806.91
2022-11-08T07:50:29.244Z,98807.72
2022-11-08T07:52:56.128Z,98799.78
2022-11-08T07:55:22.750Z,98798.84
2022-11-08T07:57:49.255Z,98802.34
2022-11-08T08:00:16.622Z,98800.53
2022-11-08T08:02:43.808Z,98797.91
2022-11-08T08:05:10.724Z,98800.44
2022-11-08T08:07:37.629Z,98778.25
2022-11-08T08:10:05.046Z,98790.59
2022-11-08T08:12:31.608Z,98794.81
2022-11-08T08:14:58.193Z,98791.09
2022-11-08T08:17:24.918Z,98797.03
2022-11-08T08:19:51.528Z,98795.00
2022-11-08T08:22:18.003Z,98802.75
2022-11-08T08:24:44.597Z,98789.28
2022-11-08T08:27:11.527Z,98792.69
2022-11-08T08:29:38.183Z,98789.72
2022-11-08T08:32:05.037Z,98784.22
2022-11-08T08:34:31.695Z,98778.72
2022-11-08T08:36:58.231Z,98791.16
2022-11-08T08:39:24.858Z,98786.38
2022-11-08T08:41:51.390Z,98786.78
2022-11-08T08:44:18.009Z,98788.22
2022-11-08T08:46:44.548Z,98779.94
2022-11-08T08:49:11.173Z,98785.03
2022-11-08T08:51:37.715Z,98789.13
2022-11-08T08:54:04.798Z,98789.03
2022-11-08T08:56:31.347Z,98787.13
2022-11-08T09:01:44.531Z,98791.22
2022-11-08T09:04:11.042Z,98780.53
2022-11-08T09:06:37.773Z,98782.09
2022-11-08T09:09:04.587Z,98782.19
2022-11-08T09:11:31.099Z,98784.50
2022-11-08T09:13:57.595Z,98790.66
2022-11-08T09:16:24.228Z,98783.56
2022-11-08T09:18:50.755Z,98787.91
2022-11-08T09:21:17.375Z,98788.84
2022-11-08T09:23:43.987Z,98791.38
2022-11-08T09:26:10.873Z,98797.53
2022-11-08T09:28:37.412Z,98798.38
2022-11-08T09:31:06.371Z,98788.03
2022-11-08T09:33:34.044Z,98788.97
2022-11-08T09:36:02.198Z,98784.50
2022-11-08T09:38:29.638Z,98784.50
2022-11-08T09:41:11.252Z,98780.06
2022-11-08T09:43:43.819Z,98790.66
2022-11-08T09:46:16.056Z,98780.91
2022-11-08T09:48:44.860Z,98780.78
2022-11-08T09:51:18.131Z,98786.00
2022-11-08T09:53:59.927Z,98778.75
2022-11-08T09:56:37.687Z,98780.56
2022-11-08T09:59:19.978Z,98785.00
2022-11-08T10:01:48.609Z,98778.66
2022-11-08T10:04:19.119Z,98764.69
2022-11-08T10:07:13.485Z,98771.44
2022-11-08T10:10:28.691Z,98767.81
2022-11-08T10:13:04.215Z,98772.28
2022-11-08T10:15:42.263Z,98763.34
2022-11-08T10:18:20.532Z,98758.19
2022-11-08T10:21:06.148Z,98752.88
2022-11-08T10:23:41.488Z,98751.09
2022-11-08T10:26:24.172Z,98748.53
2022-11-08T10:29:09.798Z,98743.47
2022-11-08T10:31:39.982Z,98746.97
2022-11-08T10:34:17.485Z,98737.31
2022-11-08T10:36:47.431Z,98736.38
2022-11-08T10:39:28.591Z,98738.81
2022-11-08T10:42:36.988Z,98734.34
2022-11-08T10:45:03.790Z,98727.94
2022-11-08T10:47:32.942Z,98732.19
2022-11-08T10:50:04.078Z,98722.31
2022-11-08T10:52:42.239Z,98722.97
2022-11-08T10:55:22.571Z,98721.06
2022-11-08T10:57:49.174Z,98690.03
2022-11-08T11:00:18.780Z,98706.72
2022-11-08T11:02:48.578Z,98706.59
2022-11-08T11:05:18.170Z,98708.28
2022-11-08T11:07:59.159Z,98694.91
2022-11-08T11:10:28.715Z,98697.44
2022-11-08T11:13:19.581Z,98691.31
2022-11-08T11:16:03.287Z,98688.53
2022-11-08T11:18:37.221Z,98694.69
2022-11-08T11:21:06.040Z,98694.69
2022-11-08T11:23:54.325Z,98688.41
2022-11-08T11:26:29.879Z,98693.59
2022-11-08T11:29:05.607Z,98692.88
2022-11-08T11:31:34.707Z,98693.13
2022-11-08T11:34:27.585Z,98689.00
2022-11-08T11:37:09.196Z,98687.44
2022-11-08T11:39:45.867Z,98680.56
2022-11-08T11:45:31.189Z,98682.47
2022-11-08T11:48:02.490Z,98684.03
2022-11-08T11:50:39.943Z,98682.25
2022-11-08T11:53:17.356Z,98670.28
2022-11-08T11:56:12.052Z,98675.88
2022-11-08T11:59:04.448Z,98673.09
2022-11-08T12:01:53.780Z,98675.63
2022-11-08T12:04:53.766Z,98670.22
2022-11-08T12:07:32.990Z,98673.59
2022-11-08T12:10:30.547Z,98669.03
2022-11-08T12:12:59.752Z,98667.09
2022-11-08T12:15:50.986Z,98663.50
2022-11-08T12:18:41.405Z,98661.69
2022-11-08T12:21:17.707Z,98660.59
2022-11-08T12:24:32.978Z,98654.34
2022-11-08T12:27:08.388Z,98648.91
2022-11-08T12:29:43.855Z,98654.94
2022-11-08T12:32:10.376Z,98647.81
2022-11-08T12:35:17.806Z,98647.72
2022-11-08T12:38:02.520Z,98647.59
2022-11-08T12:40:44.171Z,98645.91
2022-11-08T12:43:39.424Z,98648.44
2022-11-08T12:46:18.089Z,98646.50
2022-11-08T12:49:12.593Z,98642.91
2022-11-08T12:52:07.127Z,98641.81
2022-11-08T12:54:49.330Z,98625.31
2022-11-08T12:57:17.366Z,98635.53
2022-11-08T13:00:02.388Z,98603.00
2022-11-08T13:02:34.110Z,98630.84
2022-11-08T13:05:19.059Z,98635.16
2022-11-08T13:07:50.150Z,98631.69
2022-11-08T13:10:54.269Z,98628.91
2022-11-08T13:13:47.606Z,98634.19
2022-11-08T13:16:18.116Z,98635.06
2022-11-08T13:18:48.964Z,98630.59
2022-11-08T13:21:28.031Z,98634.94
2022-11-08T13:24:42.742Z,98630.47
2022-11-08T13:27:23.621Z,98619.38
2022-11-08T13:29:51.873Z,98632.28
2022-11-08T13:32:27.025Z,98633.97
2022-11-08T13:35:25.838Z,98626.84
2022-11-08T13:38:03.374Z,98625.06
2022-11-08T13:40:42.171Z,98627.72
2022-11-08T13:43:30.580Z,98625.06
2022-11-08T13:46:25.584Z,98630.38
2022-11-08T13:48:58.008Z,98623.25
2022-11-08T13:51:27.499Z,98625.91
2022-11-08T13:53:57.970Z,98623.09
2022-11-08T13:56:46.395Z,98613.59
2022-11-08T13:59:31.485Z,98614.31
2022-11-08T14:01:59.718Z,98622.41
2022-11-08T14:04:38.689Z,98623.50
2022-11-08T14:07:11.763Z,98618.28
2022-11-08T14:09:56.357Z,98613.00
2022-11-08T14:12:35.303Z,98615.78
2022-11-08T14:15:59.595Z,98607.81
2022-11-08T14:18:33.828Z,98611.44
2022-11-08T14:21:04.829Z,98613.25
2022-11-08T14:23:41.601Z,98607.94
2022-11-08T14:26:15.563Z,98600.00
2022-11-08T14:28:47.130Z,98607.94
2022-11-08T14:31:33.024Z,98608.78
2022-11-08T14:34:01.442Z,98600.81
2022-11-08T15:29:54.143Z,98583.81
2022-11-08T15:32:22.098Z,98590.69
2022-11-08T15:34:52.976Z,98593.94
2022-11-08T15:37:34.090Z,98587.69
2022-11-08T15:40:03.457Z,98581.41
2022-11-08T15:42:30.121Z,98580.44
2022-11-08T15:45:16.520Z,98581.28
2022-11-08T15:47:43.066Z,98578.50
2022-11-08T15:50:14.764Z,98576.72
2022-11-08T15:52:42.560Z,98575.84
2022-11-08T21:03:28.497Z,98626.84
2022-11-08T21:06:03.158Z,98625.06
2022-11-08T21:11:19.177Z,98627.38
2022-11-08T21:13:46.574Z,98630.84
2022-11-08T21:16:29.435Z,98632.53
2022-11-08T21:19:22.657Z,98625.44
2022-11-08T21:21:49.445Z,98509.97
2022-11-08T21:24:17.111Z,98604.97
2022-11-08T21:26:44.826Z,98625.09
2022-11-08T21:29:11.424Z,98629.19
2022-11-08T21:31:38.000Z,98631.97
2022-11-08T21:34:04.591Z,98634.72
2022-11-08T21:36:31.311Z,98624.25
2022-11-08T21:38:57.846Z,98630.50
2022-11-08T21:41:24.436Z,98627.13
2022-11-08T21:43:50.928Z,98629.91
2022-11-08T21:48:31.517Z,98642.28
2022-11-08T21:51:03.356Z,98632.66
2022-11-08T21:53:29.896Z,98634.59
2022-11-08T21:55:58.008Z,98634.59
2022-11-08T21:58:24.711Z,98632.88
2022-11-08T22:00:52.017Z,98628.56
2022-11-08T22:03:18.957Z,98632.88
2022-11-08T22:05:46.450Z,98621.47
2022-11-08T22:08:13.090Z,98623.34
2022-11-08T22:10:39.832Z,98618.25
2022-11-08T22:13:06.354Z,98616.19
2022-11-08T22:15:32.842Z,98629.75
2022-11-08T22:18:16.292Z,98622.00
2022-11-08T22:21:07.602Z,98623.81
2022-11-08T22:23:35.295Z,98626.59
2022-11-08T22:26:02.412Z,98626.72
2022-11-08T22:28:29.453Z,98606.22
2022-11-08T22:32:01.757Z,98620.44
2022-11-08T22:34:29.337Z,98616.94
2022-11-08T22:36:55.956Z,98621.28
2022-11-08T22:39:23.672Z,98620.34
2022-11-08T22:44:06.320Z,98622.13
2022-11-08T22:46:37.705Z,98620.22
2022-11-08T22:49:04.639Z,98614.00
2022-11-08T22:51:31.571Z,98615.56
2022-11-08T22:53:58.088Z,98613.09
2022-11-08T22:56:24.689Z,98612.94
2022-11-08T22:58:51.295Z,98615.44
2022-11-08T23:01:17.922Z,98602.53
2022-11-08T23:03:45.973Z,98617.03
2022-11-08T23:06:12.934Z,98612.47
2022-11-08T23:08:39.716Z,98621.03
2022-11-08T23:11:25.609Z,98615.72
2022-11-08T23:14:10.791Z,98627.16
2022-11-08T23:16:40.703Z,98624.63
2022-11-08T23:19:28.047Z,98627.28
2022-11-08T23:22:14.759Z,98621.16
2022-11-08T23:24:42.994Z,98620.41
2022-11-08T23:27:30.310Z,98618.72
2022-11-08T23:30:15.559Z,98617.88
2022-11-08T23:32:47.817Z,98619.78
2022-11-08T23:35:15.001Z,98627.84
2022-11-08T23:37:41.870Z,98622.66
2022-11-08T23:40:29.348Z,98625.41
2022-11-08T23:43:30.047Z,98619.34
2022-11-08T23:45:57.301Z,98627.53
2022-11-08T23:48:24.200Z,98626.78
2022-11-08T23:50:53.776Z,98621.63
2022-11-08T23:53:22.242Z,98621.75
2022-11-08T23:55:49.008Z,98628.81
2022-11-08T23:58:15.651Z,98623.78
